sensor_id;sensor_type;location;lat;lon;timestamp;temperature;humidity
6788;DHT22;3431;47.966;10.268;2022-07-18T00:00:14;15.80;90.50
6788;DHT22;3431;47.966;10.268;2022-07-18T00:00:36;15.80;90.50
6788;DHT22;3431;47.966;10.268;2022-07-18T00:00:58;15.80;90.50
6788;DHT22;3431;47.966;10.268;2022-07-18T00:01:20;15.70;90.50
6788;DHT22;3431;47.966;10.268;2022-07-18T00:01:43;15.70;90.50
6788;DHT22;3431;47.966;10.268;2022-07-18T00:02:05;15.70;90.60
6788;DHT22;3431;47.966;10.268;2022-07-18T00:02:27;15.70;90.60
6788;DHT22;3431;47.966;10.268;2022-07-18T00:02:49;15.70;90.60
6788;DHT22;3431;47.966;10.268;2022-07-18T00:03:10;15.70;90.70
6788;DHT22;3431;47.966;10.268;2022-07-18T00:03:32;15.70;90.80
6788;DHT22;3431;47.966;10.268;2022-07-18T00:03:54;15.70;90.70
6788;DHT22;3431;47.966;10.268;2022-07-18T00:04:16;15.70;90.70
6788;DHT22;3431;47.966;10.268;2022-07-18T00:04:38;15.60;90.70
6788;DHT22;3431;47.966;10.268;2022-07-18T00:04:59;15.60;90.70
6788;DHT22;3431;47.966;10.268;2022-07-18T00:05:22;15.60;90.80
6788;DHT22;3431;47.966;10.268;2022-07-18T00:05:43;15.60;90.80
6788;DHT22;3431;47.966;10.268;2022-07-18T00:06:05;15.60;90.80
6788;DHT22;3431;47.966;10.268;2022-07-18T00:06:27;15.60;90.90
6788;DHT22;3431;47.966;10.268;2022-07-18T00:06:49;15.60;90.90
6788;DHT22;3431;47.966;10.268;2022-07-18T00:07:12;15.60;90.90
6788;DHT22;3431;47.966;10.268;2022-07-18T00:07:34;15.60;90.90
6788;DHT22;3431;47.966;10.268;2022-07-18T00:07:56;15.60;90.90
6788;DHT22;3431;47.966;10.268;2022-07-18T00:08:18;15.60;91.00
6788;DHT22;3431;47.966;10.268;2022-07-18T00:08:39;15.60;91.00
6788;DHT22;3431;47.966;10.268;2022-07-18T00:09:01;15.50;91.00
6788;DHT22;3431;47.966;10.268;2022-07-18T00:09:24;15.50;91.00
6788;DHT22;3431;47.966;10.268;2022-07-18T00:09:46;15.50;91.00
6788;DHT22;3431;47.966;10.268;2022-07-18T00:10:08;15.50;91.00
6788;DHT22;3431;47.966;10.268;2022-07-18T00:10:31;15.50;91.10
6788;DHT22;3431;47.966;10.268;2022-07-18T00:10:52;15.50;91.10
6788;DHT22;3431;47.966;10.268;2022-07-18T00:11:14;15.50;91.10
6788;DHT22;3431;47.966;10.268;2022-07-18T00:11:36;15.50;91.10
6788;DHT22;3431;47.966;10.268;2022-07-18T00:11:58;15.40;91.10
6788;DHT22;3431;47.966;10.268;2022-07-18T00:12:20;15.50;91.20
6788;DHT22;3431;47.966;10.268;2022-07-18T00:12:41;15.40;91.20
6788;DHT22;3431;47.966;10.268;2022-07-18T00:13:04;15.50;91.20
6788;DHT22;3431;47.966;10.268;2022-07-18T00:13:26;15.40;91.20
6788;DHT22;3431;47.966;10.268;2022-07-18T00:13:47;15.40;91.20
6788;DHT22;3431;47.966;10.268;2022-07-18T00:14:09;15.40;91.20
6788;DHT22;3431;47.966;10.268;2022-07-18T00:14:32;15.40;91.30
6788;DHT22;3431;47.966;10.268;2022-07-18T00:14:53;15.40;91.30
6788;DHT22;3431;47.966;10.268;2022-07-18T00:15:15;15.40;91.30
6788;DHT22;3431;47.966;10.268;2022-07-18T00:15:36;15.40;91.30
6788;DHT22;3431;47.966;10.268;2022-07-18T00:15:59;15.40;91.30
6788;DHT22;3431;47.966;10.268;2022-07-18T00:16:21;15.40;91.30
6788;DHT22;3431;47.966;10.268;2022-07-18T00:16:45;15.40;91.30
6788;DHT22;3431;47.966;10.268;2022-07-18T00:17:07;15.40;91.40
6788;DHT22;3431;47.966;10.268;2022-07-18T00:17:29;15.40;91.40
6788;DHT22;3431;47.966;10.268;2022-07-18T00:17:51;15.30;91.40
6788;DHT22;3431;47.966;10.268;2022-07-18T00:18:13;15.40;91.50
6788;DHT22;3431;47.966;10.268;2022-07-18T00:18:35;15.30;91.40
6788;DHT22;3431;47.966;10.268;2022-07-18T00:18:56;15.30;91.20
6788;DHT22;3431;47.966;10.268;2022-07-18T00:19:21;15.30;91.50
6788;DHT22;3431;47.966;10.268;2022-07-18T00:19:43;15.30;91.40
6788;DHT22;3431;47.966;10.268;2022-07-18T00:20:07;15.30;91.50
6788;DHT22;3431;47.966;10.268;2022-07-18T00:20:30;15.30;91.50
6788;DHT22;3431;47.966;10.268;2022-07-18T00:20:52;15.30;91.60
6788;DHT22;3431;47.966;10.268;2022-07-18T00:21:14;15.30;91.90
6788;DHT22;3431;47.966;10.268;2022-07-18T00:21:36;15.30;91.70
6788;DHT22;3431;47.966;10.268;2022-07-18T00:21:57;15.30;91.70
6788;DHT22;3431;47.966;10.268;2022-07-18T00:22:20;15.30;91.70
6788;DHT22;3431;47.966;10.268;2022-07-18T00:22:41;15.30;91.70
6788;DHT22;3431;47.966;10.268;2022-07-18T00:23:03;15.30;91.70
6788;DHT22;3431;47.966;10.268;2022-07-18T00:23:25;15.30;91.80
6788;DHT22;3431;47.966;10.268;2022-07-18T00:23:46;15.20;91.70
6788;DHT22;3431;47.966;10.268;2022-07-18T00:24:09;15.30;91.80
6788;DHT22;3431;47.966;10.268;2022-07-18T00:24:31;15.30;91.80
6788;DHT22;3431;47.966;10.268;2022-07-18T00:24:53;15.20;91.80
6788;DHT22;3431;47.966;10.268;2022-07-18T00:25:14;15.20;91.80
6788;DHT22;3431;47.966;10.268;2022-07-18T00:25:37;15.20;91.90
6788;DHT22;3431;47.966;10.268;2022-07-18T00:25:58;15.20;91.90
6788;DHT22;3431;47.966;10.268;2022-07-18T00:26:20;15.20;92.00
6788;DHT22;3431;47.966;10.268;2022-07-18T00:26:42;15.20;92.00
6788;DHT22;3431;47.966;10.268;2022-07-18T00:27:04;15.20;92.00
6788;DHT22;3431;47.966;10.268;2022-07-18T00:27:28;15.20;92.00
6788;DHT22;3431;47.966;10.268;2022-07-18T00:27:50;15.20;92.00
6788;DHT22;3431;47.966;10.268;2022-07-18T00:28:11;15.20;92.00
6788;DHT22;3431;47.966;10.268;2022-07-18T00:28:33;15.20;91.90
6788;DHT22;3431;47.966;10.268;2022-07-18T00:28:56;15.20;91.90
6788;DHT22;3431;47.966;10.268;2022-07-18T00:29:18;15.20;91.90
6788;DHT22;3431;47.966;10.268;2022-07-18T00:29:39;15.20;92.00
6788;DHT22;3431;47.966;10.268;2022-07-18T00:30:01;15.20;92.00
6788;DHT22;3431;47.966;10.268;2022-07-18T00:30:24;15.20;92.00
6788;DHT22;3431;47.966;10.268;2022-07-18T00:30:46;15.20;92.00
6788;DHT22;3431;47.966;10.268;2022-07-18T00:31:07;15.20;92.00
6788;DHT22;3431;47.966;10.268;2022-07-18T00:31:29;15.20;92.00
6788;DHT22;3431;47.966;10.268;2022-07-18T00:31:53;15.20;92.10
6788;DHT22;3431;47.966;10.268;2022-07-18T00:32:14;15.20;92.10
6788;DHT22;3431;47.966;10.268;2022-07-18T00:32:36;15.20;92.10
6788;DHT22;3431;47.966;10.268;2022-07-18T00:32:59;15.20;92.20
6788;DHT22;3431;47.966;10.268;2022-07-18T00:33:20;15.10;92.10
6788;DHT22;3431;47.966;10.268;2022-07-18T00:33:42;15.20;92.20
6788;DHT22;3431;47.966;10.268;2022-07-18T00:34:04;15.20;92.20
6788;DHT22;3431;47.966;10.268;2022-07-18T00:34:26;15.20;92.20
6788;DHT22;3431;47.966;10.268;2022-07-18T00:34:48;15.10;92.20
6788;DHT22;3431;47.966;10.268;2022-07-18T00:35:10;15.10;92.20
6788;DHT22;3431;47.966;10.268;2022-07-18T00:35:31;15.10;92.20
6788;DHT22;3431;47.966;10.268;2022-07-18T00:35:54;15.10;92.20
6788;DHT22;3431;47.966;10.268;2022-07-18T00:36:15;15.10;92.10
6788;DHT22;3431;47.966;10.268;2022-07-18T00:36:37;15.10;92.20
6788;DHT22;3431;47.966;10.268;2022-07-18T00:36:59;15.20;92.20
6788;DHT22;3431;47.966;10.268;2022-07-18T00:37:20;15.10;92.20
6788;DHT22;3431;47.966;10.268;2022-07-18T00:37:43;15.10;92.20
6788;DHT22;3431;47.966;10.268;2022-07-18T00:38:05;15.10;92.20
6788;DHT22;3431;47.966;10.268;2022-07-18T00:38:26;15.10;92.20
6788;DHT22;3431;47.966;10.268;2022-07-18T00:38:48;15.10;92.20
6788;DHT22;3431;47.966;10.268;2022-07-18T00:39:10;15.10;92.20
6788;DHT22;3431;47.966;10.268;2022-07-18T00:39:32;15.10;92.20
6788;DHT22;3431;47.966;10.268;2022-07-18T00:39:54;15.10;92.20
6788;DHT22;3431;47.966;10.268;2022-07-18T00:40:16;15.10;92.20
6788;DHT22;3431;47.966;10.268;2022-07-18T00:40:38;15.10;92.20
6788;DHT22;3431;47.966;10.268;2022-07-18T00:41:00;15.10;92.20
6788;DHT22;3431;47.966;10.268;2022-07-18T00:41:21;15.10;92.20
6788;DHT22;3431;47.966;10.268;2022-07-18T00:41:47;15.10;92.30
6788;DHT22;3431;47.966;10.268;2022-07-18T00:42:09;15.10;92.30
6788;DHT22;3431;47.966;10.268;2022-07-18T00:42:30;15.10;92.30
6788;DHT22;3431;47.966;10.268;2022-07-18T00:42:52;15.00;92.30
6788;DHT22;3431;47.966;10.268;2022-07-18T00:43:15;15.10;92.40
6788;DHT22;3431;47.966;10.268;2022-07-18T00:43:37;15.00;92.40
6788;DHT22;3431;47.966;10.268;2022-07-18T00:43:59;15.00;92.40
6788;DHT22;3431;47.966;10.268;2022-07-18T00:44:22;15.00;92.40
6788;DHT22;3431;47.966;10.268;2022-07-18T00:44:44;15.00;92.40
6788;DHT22;3431;47.966;10.268;2022-07-18T00:45:07;15.00;92.40
6788;DHT22;3431;47.966;10.268;2022-07-18T00:45:29;15.00;92.40
6788;DHT22;3431;47.966;10.268;2022-07-18T00:45:50;15.00;92.40
6788;DHT22;3431;47.966;10.268;2022-07-18T00:46:14;15.00;92.40
6788;DHT22;3431;47.966;10.268;2022-07-18T00:46:35;15.00;92.40
6788;DHT22;3431;47.966;10.268;2022-07-18T00:47:00;15.00;92.50
6788;DHT22;3431;47.966;10.268;2022-07-18T00:47:22;15.00;92.50
6788;DHT22;3431;47.966;10.268;2022-07-18T00:47:45;15.00;92.50
6788;DHT22;3431;47.966;10.268;2022-07-18T00:48:07;15.00;92.60
6788;DHT22;3431;47.966;10.268;2022-07-18T00:48:29;15.00;92.60
6788;DHT22;3431;47.966;10.268;2022-07-18T00:48:51;15.00;92.60
6788;DHT22;3431;47.966;10.268;2022-07-18T00:49:14;15.00;92.90
6788;DHT22;3431;47.966;10.268;2022-07-18T00:49:35;14.90;92.50
6788;DHT22;3431;47.966;10.268;2022-07-18T00:49:57;15.00;92.60
6788;DHT22;3431;47.966;10.268;2022-07-18T00:50:19;14.90;92.60
6788;DHT22;3431;47.966;10.268;2022-07-18T00:50:42;14.90;92.60
6788;DHT22;3431;47.966;10.268;2022-07-18T00:51:05;14.90;92.60
6788;DHT22;3431;47.966;10.268;2022-07-18T00:51:27;14.90;92.60
6788;DHT22;3431;47.966;10.268;2022-07-18T00:51:48;14.90;92.70
6788;DHT22;3431;47.966;10.268;2022-07-18T00:52:12;14.90;92.70
6788;DHT22;3431;47.966;10.268;2022-07-18T00:52:34;14.80;92.70
6788;DHT22;3431;47.966;10.268;2022-07-18T00:52:56;14.90;92.80
6788;DHT22;3431;47.966;10.268;2022-07-18T00:53:18;14.90;92.80
6788;DHT22;3431;47.966;10.268;2022-07-18T00:53:40;14.80;92.80
6788;DHT22;3431;47.966;10.268;2022-07-18T00:54:02;14.80;92.90
6788;DHT22;3431;47.966;10.268;2022-07-18T00:54:24;14.80;92.90
6788;DHT22;3431;47.966;10.268;2022-07-18T00:54:47;14.80;92.90
6788;DHT22;3431;47.966;10.268;2022-07-18T00:55:08;14.80;92.90
6788;DHT22;3431;47.966;10.268;2022-07-18T00:55:30;14.80;93.00
6788;DHT22;3431;47.966;10.268;2022-07-18T00:55:52;14.80;93.00
6788;DHT22;3431;47.966;10.268;2022-07-18T00:56:18;14.80;93.00
6788;DHT22;3431;47.966;10.268;2022-07-18T00:56:40;14.90;93.10
6788;DHT22;3431;47.966;10.268;2022-07-18T00:57:03;14.80;93.10
6788;DHT22;3431;47.966;10.268;2022-07-18T00:57:26;14.80;93.10
6788;DHT22;3431;47.966;10.268;2022-07-18T00:57:47;14.80;93.10
6788;DHT22;3431;47.966;10.268;2022-07-18T00:58:09;14.80;93.10
6788;DHT22;3431;47.966;10.268;2022-07-18T00:58:31;14.80;93.10
6788;DHT22;3431;47.966;10.268;2022-07-18T00:58:53;14.80;93.10
6788;DHT22;3431;47.966;10.268;2022-07-18T00:59:16;14.80;93.10
6788;DHT22;3431;47.966;10.268;2022-07-18T00:59:38;14.80;93.10
6788;DHT22;3431;47.966;10.268;2022-07-18T01:00:19;14.80;93.20
6788;DHT22;3431;47.966;10.268;2022-07-18T01:00:59;14.70;93.10
6788;DHT22;3431;47.966;10.268;2022-07-18T01:01:39;14.70;93.20
6788;DHT22;3431;47.966;10.268;2022-07-18T01:02:05;14.70;93.20
6788;DHT22;3431;47.966;10.268;2022-07-18T01:02:26;14.70;93.20
6788;DHT22;3431;47.966;10.268;2022-07-18T01:02:48;14.70;93.60
6788;DHT22;3431;47.966;10.268;2022-07-18T01:03:11;14.70;93.30
6788;DHT22;3431;47.966;10.268;2022-07-18T01:03:32;14.70;93.30
6788;DHT22;3431;47.966;10.268;2022-07-18T01:03:54;14.70;93.30
6788;DHT22;3431;47.966;10.268;2022-07-18T01:04:18;14.70;93.30
6788;DHT22;3431;47.966;10.268;2022-07-18T01:04:41;14.70;93.30
6788;DHT22;3431;47.966;10.268;2022-07-18T01:05:03;14.70;93.30
6788;DHT22;3431;47.966;10.268;2022-07-18T01:05:25;14.70;93.30
6788;DHT22;3431;47.966;10.268;2022-07-18T01:05:47;14.70;93.40
6788;DHT22;3431;47.966;10.268;2022-07-18T01:06:09;14.70;93.40
6788;DHT22;3431;47.966;10.268;2022-07-18T01:06:31;14.70;93.40
6788;DHT22;3431;47.966;10.268;2022-07-18T01:06:53;14.70;93.40
6788;DHT22;3431;47.966;10.268;2022-07-18T01:07:14;14.70;93.50
6788;DHT22;3431;47.966;10.268;2022-07-18T01:07:37;14.70;93.50
6788;DHT22;3431;47.966;10.268;2022-07-18T01:07:59;14.70;93.60
6788;DHT22;3431;47.966;10.268;2022-07-18T01:08:20;14.70;93.60
6788;DHT22;3431;47.966;10.268;2022-07-18T01:08:43;14.70;93.60
6788;DHT22;3431;47.966;10.268;2022-07-18T01:09:05;14.70;93.60
6788;DHT22;3431;47.966;10.268;2022-07-18T01:09:27;14.70;93.60
6788;DHT22;3431;47.966;10.268;2022-07-18T01:09:49;14.70;93.60
6788;DHT22;3431;47.966;10.268;2022-07-18T01:10:10;14.70;93.60
6788;DHT22;3431;47.966;10.268;2022-07-18T01:10:33;14.60;93.60
6788;DHT22;3431;47.966;10.268;2022-07-18T01:10:55;14.70;93.70
6788;DHT22;3431;47.966;10.268;2022-07-18T01:11:16;14.70;93.70
6788;DHT22;3431;47.966;10.268;2022-07-18T01:11:38;14.60;93.70
6788;DHT22;3431;47.966;10.268;2022-07-18T01:12:00;14.60;93.70
6788;DHT22;3431;47.966;10.268;2022-07-18T01:12:25;14.60;93.70
6788;DHT22;3431;47.966;10.268;2022-07-18T01:12:47;14.60;93.70
6788;DHT22;3431;47.966;10.268;2022-07-18T01:13:08;14.60;93.70
6788;DHT22;3431;47.966;10.268;2022-07-18T01:13:30;14.60;93.80
6788;DHT22;3431;47.966;10.268;2022-07-18T01:13:53;14.60;93.80
6788;DHT22;3431;47.966;10.268;2022-07-18T01:14:15;14.60;93.80
6788;DHT22;3431;47.966;10.268;2022-07-18T01:14:37;14.60;93.80
6788;DHT22;3431;47.966;10.268;2022-07-18T01:14:58;14.60;93.80
6788;DHT22;3431;47.966;10.268;2022-07-18T01:15:20;14.60;94.10
6788;DHT22;3431;47.966;10.268;2022-07-18T01:15:43;14.60;93.80
6788;DHT22;3431;47.966;10.268;2022-07-18T01:16:05;14.60;93.80
6788;DHT22;3431;47.966;10.268;2022-07-18T01:16:26;14.60;93.80
6788;DHT22;3431;47.966;10.268;2022-07-18T01:16:49;14.60;93.80
6788;DHT22;3431;47.966;10.268;2022-07-18T01:17:16;14.60;93.60
6788;DHT22;3431;47.966;10.268;2022-07-18T01:17:39;14.60;94.20
6788;DHT22;3431;47.966;10.268;2022-07-18T01:18:01;14.60;93.90
6788;DHT22;3431;47.966;10.268;2022-07-18T01:18:23;14.60;93.90
6788;DHT22;3431;47.966;10.268;2022-07-18T01:18:45;14.60;93.90
6788;DHT22;3431;47.966;10.268;2022-07-18T01:19:09;14.60;94.00
6788;DHT22;3431;47.966;10.268;2022-07-18T01:19:31;14.60;93.90
6788;DHT22;3431;47.966;10.268;2022-07-18T01:19:53;14.60;93.90
6788;DHT22;3431;47.966;10.268;2022-07-18T01:20:15;14.60;93.90
6788;DHT22;3431;47.966;10.268;2022-07-18T01:20:38;14.60;93.90
6788;DHT22;3431;47.966;10.268;2022-07-18T01:21:00;14.60;93.90
6788;DHT22;3431;47.966;10.268;2022-07-18T01:21:22;14.60;93.90
6788;DHT22;3431;47.966;10.268;2022-07-18T01:21:45;14.60;94.00
6788;DHT22;3431;47.966;10.268;2022-07-18T01:22:06;14.60;94.00
6788;DHT22;3431;47.966;10.268;2022-07-18T01:22:28;14.60;94.00
6788;DHT22;3431;47.966;10.268;2022-07-18T01:22:49;14.60;94.00
6788;DHT22;3431;47.966;10.268;2022-07-18T01:23:12;14.60;94.10
6788;DHT22;3431;47.966;10.268;2022-07-18T01:23:33;14.60;94.10
6788;DHT22;3431;47.966;10.268;2022-07-18T01:23:55;14.60;94.10
6788;DHT22;3431;47.966;10.268;2022-07-18T01:24:17;14.60;94.10
6788;DHT22;3431;47.966;10.268;2022-07-18T01:24:39;14.60;94.10
6788;DHT22;3431;47.966;10.268;2022-07-18T01:25:02;14.60;94.10
6788;DHT22;3431;47.966;10.268;2022-07-18T01:25:24;14.60;94.10
6788;DHT22;3431;47.966;10.268;2022-07-18T01:25:45;14.60;94.10
6788;DHT22;3431;47.966;10.268;2022-07-18T01:26:08;14.60;94.10
6788;DHT22;3431;47.966;10.268;2022-07-18T01:26:30;14.60;94.10
6788;DHT22;3431;47.966;10.268;2022-07-18T01:26:52;14.60;94.10
6788;DHT22;3431;47.966;10.268;2022-07-18T01:27:14;14.60;94.10
6788;DHT22;3431;47.966;10.268;2022-07-18T01:27:37;14.60;94.10
6788;DHT22;3431;47.966;10.268;2022-07-18T01:27:59;14.60;94.20
6788;DHT22;3431;47.966;10.268;2022-07-18T01:28:20;14.60;94.20
6788;DHT22;3431;47.966;10.268;2022-07-18T01:28:43;14.60;94.20
6788;DHT22;3431;47.966;10.268;2022-07-18T01:29:05;14.60;94.20
6788;DHT22;3431;47.966;10.268;2022-07-18T01:29:27;14.60;94.30
6788;DHT22;3431;47.966;10.268;2022-07-18T01:29:51;14.60;94.30
6788;DHT22;3431;47.966;10.268;2022-07-18T01:30:13;14.60;94.20
6788;DHT22;3431;47.966;10.268;2022-07-18T01:30:34;14.60;94.30
6788;DHT22;3431;47.966;10.268;2022-07-18T01:30:57;14.60;94.30
6788;DHT22;3431;47.966;10.268;2022-07-18T01:31:18;14.60;94.30
6788;DHT22;3431;47.966;10.268;2022-07-18T01:31:40;14.60;94.30
6788;DHT22;3431;47.966;10.268;2022-07-18T01:32:05;14.60;94.60
6788;DHT22;3431;47.966;10.268;2022-07-18T01:32:27;14.60;94.30
6788;DHT22;3431;47.966;10.268;2022-07-18T01:32:55;14.60;94.30
6788;DHT22;3431;47.966;10.268;2022-07-18T01:33:17;14.60;94.30
6788;DHT22;3431;47.966;10.268;2022-07-18T01:33:39;14.60;94.30
6788;DHT22;3431;47.966;10.268;2022-07-18T01:34:01;14.50;94.30
6788;DHT22;3431;47.966;10.268;2022-07-18T01:34:24;14.50;94.30
6788;DHT22;3431;47.966;10.268;2022-07-18T01:34:47;14.50;94.30
6788;DHT22;3431;47.966;10.268;2022-07-18T01:35:10;14.50;94.30
6788;DHT22;3431;47.966;10.268;2022-07-18T01:35:32;14.50;94.30
6788;DHT22;3431;47.966;10.268;2022-07-18T01:35:55;14.50;94.40
6788;DHT22;3431;47.966;10.268;2022-07-18T01:36:17;14.50;94.40
6788;DHT22;3431;47.966;10.268;2022-07-18T01:36:39;14.50;94.40
6788;DHT22;3431;47.966;10.268;2022-07-18T01:37:00;14.50;94.50
6788;DHT22;3431;47.966;10.268;2022-07-18T01:37:22;14.50;94.50
6788;DHT22;3431;47.966;10.268;2022-07-18T01:37:44;14.50;94.50
6788;DHT22;3431;47.966;10.268;2022-07-18T01:38:06;14.50;94.50
6788;DHT22;3431;47.966;10.268;2022-07-18T01:38:28;14.50;94.50
6788;DHT22;3431;47.966;10.268;2022-07-18T01:38:50;14.50;94.60
6788;DHT22;3431;47.966;10.268;2022-07-18T01:39:12;14.50;94.60
6788;DHT22;3431;47.966;10.268;2022-07-18T01:39:35;14.50;94.60
6788;DHT22;3431;47.966;10.268;2022-07-18T01:39:57;14.50;94.60
6788;DHT22;3431;47.966;10.268;2022-07-18T01:40:18;14.50;94.60
6788;DHT22;3431;47.966;10.268;2022-07-18T01:40:40;14.50;94.60
6788;DHT22;3431;47.966;10.268;2022-07-18T01:41:03;14.50;94.50
6788;DHT22;3431;47.966;10.268;2022-07-18T01:41:24;14.50;94.50
6788;DHT22;3431;47.966;10.268;2022-07-18T01:41:54;14.50;94.50
6788;DHT22;3431;47.966;10.268;2022-07-18T01:42:16;14.50;94.50
6788;DHT22;3431;47.966;10.268;2022-07-18T01:42:38;14.50;94.50
6788;DHT22;3431;47.966;10.268;2022-07-18T01:43:00;14.50;94.60
6788;DHT22;3431;47.966;10.268;2022-07-18T01:43:22;14.50;94.60
6788;DHT22;3431;47.966;10.268;2022-07-18T01:43:44;14.50;94.60
6788;DHT22;3431;47.966;10.268;2022-07-18T01:44:06;14.50;94.60
6788;DHT22;3431;47.966;10.268;2022-07-18T01:44:28;14.50;94.60
6788;DHT22;3431;47.966;10.268;2022-07-18T01:44:50;14.50;94.60
6788;DHT22;3431;47.966;10.268;2022-07-18T01:45:12;14.50;94.60
6788;DHT22;3431;47.966;10.268;2022-07-18T01:45:34;14.40;94.50
6788;DHT22;3431;47.966;10.268;2022-07-18T01:45:56;14.50;94.60
6788;DHT22;3431;47.966;10.268;2022-07-18T01:46:18;14.50;94.90
6788;DHT22;3431;47.966;10.268;2022-07-18T01:46:40;14.50;94.60
6788;DHT22;3431;47.966;10.268;2022-07-18T01:47:06;14.50;94.60
6788;DHT22;3431;47.966;10.268;2022-07-18T01:47:28;14.50;94.60
6788;DHT22;3431;47.966;10.268;2022-07-18T01:47:50;14.50;94.60
6788;DHT22;3431;47.966;10.268;2022-07-18T01:48:12;14.50;94.70
6788;DHT22;3431;47.966;10.268;2022-07-18T01:48:33;14.40;94.60
6788;DHT22;3431;47.966;10.268;2022-07-18T01:48:57;14.40;94.70
6788;DHT22;3431;47.966;10.268;2022-07-18T01:49:19;14.40;94.70
6788;DHT22;3431;47.966;10.268;2022-07-18T01:49:42;14.40;94.70
6788;DHT22;3431;47.966;10.268;2022-07-18T01:50:05;14.40;94.70
6788;DHT22;3431;47.966;10.268;2022-07-18T01:50:27;14.40;94.70
6788;DHT22;3431;47.966;10.268;2022-07-18T01:50:49;14.40;94.80
6788;DHT22;3431;47.966;10.268;2022-07-18T01:51:13;14.40;94.80
6788;DHT22;3431;47.966;10.268;2022-07-18T01:51:35;14.40;94.80
6788;DHT22;3431;47.966;10.268;2022-07-18T01:51:56;14.40;94.70
6788;DHT22;3431;47.966;10.268;2022-07-18T01:52:18;14.40;94.70
6788;DHT22;3431;47.966;10.268;2022-07-18T01:52:41;14.40;94.80
6788;DHT22;3431;47.966;10.268;2022-07-18T01:53:03;14.40;94.80
6788;DHT22;3431;47.966;10.268;2022-07-18T01:53:25;14.40;94.80
6788;DHT22;3431;47.966;10.268;2022-07-18T01:53:54;14.40;94.80
6788;DHT22;3431;47.966;10.268;2022-07-18T01:54:19;14.40;94.80
6788;DHT22;3431;47.966;10.268;2022-07-18T01:54:41;14.40;94.80
6788;DHT22;3431;47.966;10.268;2022-07-18T01:55:05;14.40;94.90
6788;DHT22;3431;47.966;10.268;2022-07-18T01:55:27;14.40;94.90
6788;DHT22;3431;47.966;10.268;2022-07-18T01:55:50;14.40;95.20
6788;DHT22;3431;47.966;10.268;2022-07-18T01:56:12;14.40;94.90
6788;DHT22;3431;47.966;10.268;2022-07-18T01:56:34;14.40;94.90
6788;DHT22;3431;47.966;10.268;2022-07-18T01:56:56;14.40;94.90
6788;DHT22;3431;47.966;10.268;2022-07-18T01:57:17;14.40;94.90
6788;DHT22;3431;47.966;10.268;2022-07-18T01:57:40;14.40;95.00
6788;DHT22;3431;47.966;10.268;2022-07-18T01:58:02;14.40;95.00
6788;DHT22;3431;47.966;10.268;2022-07-18T01:58:23;14.40;95.00
6788;DHT22;3431;47.966;10.268;2022-07-18T01:58:45;14.40;95.00
6788;DHT22;3431;47.966;10.268;2022-07-18T01:59:07;14.40;95.00
6788;DHT22;3431;47.966;10.268;2022-07-18T01:59:29;14.40;95.00
6788;DHT22;3431;47.966;10.268;2022-07-18T01:59:51;14.40;95.00
6788;DHT22;3431;47.966;10.268;2022-07-18T02:00:13;14.40;95.00
6788;DHT22;3431;47.966;10.268;2022-07-18T02:00:36;14.40;95.10
6788;DHT22;3431;47.966;10.268;2022-07-18T02:00:57;14.40;95.10
6788;DHT22;3431;47.966;10.268;2022-07-18T02:01:19;14.40;95.10
6788;DHT22;3431;47.966;10.268;2022-07-18T02:01:40;14.40;95.20
6788;DHT22;3431;47.966;10.268;2022-07-18T02:02:03;14.40;95.20
6788;DHT22;3431;47.966;10.268;2022-07-18T02:02:30;14.40;95.20
6788;DHT22;3431;47.966;10.268;2022-07-18T02:02:52;14.30;95.20
6788;DHT22;3431;47.966;10.268;2022-07-18T02:03:13;14.30;95.20
6788;DHT22;3431;47.966;10.268;2022-07-18T02:03:36;14.30;95.20
6788;DHT22;3431;47.966;10.268;2022-07-18T02:03:57;14.30;95.20
6788;DHT22;3431;47.966;10.268;2022-07-18T02:04:19;14.30;95.20
6788;DHT22;3431;47.966;10.268;2022-07-18T02:04:41;14.30;95.30
6788;DHT22;3431;47.966;10.268;2022-07-18T02:05:20;14.30;95.30
6788;DHT22;3431;47.966;10.268;2022-07-18T02:05:43;14.30;95.30
6788;DHT22;3431;47.966;10.268;2022-07-18T02:06:05;14.30;95.40
6788;DHT22;3431;47.966;10.268;2022-07-18T02:06:28;14.30;95.40
6788;DHT22;3431;47.966;10.268;2022-07-18T02:06:49;14.30;95.40
6788;DHT22;3431;47.966;10.268;2022-07-18T02:07:12;14.30;95.50
6788;DHT22;3431;47.966;10.268;2022-07-18T02:07:35;14.20;95.40
6788;DHT22;3431;47.966;10.268;2022-07-18T02:07:57;14.20;95.50
6788;DHT22;3431;47.966;10.268;2022-07-18T02:08:19;14.20;95.50
6788;DHT22;3431;47.966;10.268;2022-07-18T02:08:41;14.20;95.50
6788;DHT22;3431;47.966;10.268;2022-07-18T02:09:03;14.20;95.50
6788;DHT22;3431;47.966;10.268;2022-07-18T02:09:24;14.20;95.50
6788;DHT22;3431;47.966;10.268;2022-07-18T02:09:46;14.20;95.60
6788;DHT22;3431;47.966;10.268;2022-07-18T02:10:10;14.20;95.90
6788;DHT22;3431;47.966;10.268;2022-07-18T02:10:32;14.20;95.60
6788;DHT22;3431;47.966;10.268;2022-07-18T02:10:53;14.20;95.70
6788;DHT22;3431;47.966;10.268;2022-07-18T02:11:16;14.20;95.70
6788;DHT22;3431;47.966;10.268;2022-07-18T02:11:38;14.20;95.70
6788;DHT22;3431;47.966;10.268;2022-07-18T02:11:59;14.20;95.70
6788;DHT22;3431;47.966;10.268;2022-07-18T02:12:21;14.20;95.70
6788;DHT22;3431;47.966;10.268;2022-07-18T02:12:43;14.20;95.70
6788;DHT22;3431;47.966;10.268;2022-07-18T02:13:06;14.20;95.70
6788;DHT22;3431;47.966;10.268;2022-07-18T02:13:27;14.20;95.70
6788;DHT22;3431;47.966;10.268;2022-07-18T02:13:49;14.20;95.50
6788;DHT22;3431;47.966;10.268;2022-07-18T02:14:11;14.10;95.70
6788;DHT22;3431;47.966;10.268;2022-07-18T02:14:34;14.20;95.80
6788;DHT22;3431;47.966;10.268;2022-07-18T02:14:55;14.20;95.80
6788;DHT22;3431;47.966;10.268;2022-07-18T02:15:17;14.20;95.80
6788;DHT22;3431;47.966;10.268;2022-07-18T02:15:39;14.10;95.80
6788;DHT22;3431;47.966;10.268;2022-07-18T02:16:01;14.10;95.80
6788;DHT22;3431;47.966;10.268;2022-07-18T02:16:22;14.10;95.80
6788;DHT22;3431;47.966;10.268;2022-07-18T02:16:44;14.10;95.80
6788;DHT22;3431;47.966;10.268;2022-07-18T02:17:07;14.10;95.90
6788;DHT22;3431;47.966;10.268;2022-07-18T02:17:28;14.10;95.90
6788;DHT22;3431;47.966;10.268;2022-07-18T02:17:50;14.10;95.90
6788;DHT22;3431;47.966;10.268;2022-07-18T02:18:13;14.10;95.90
6788;DHT22;3431;47.966;10.268;2022-07-18T02:18:34;14.10;96.00
6788;DHT22;3431;47.966;10.268;2022-07-18T02:18:56;14.10;96.00
6788;DHT22;3431;47.966;10.268;2022-07-18T02:19:18;14.10;96.00
6788;DHT22;3431;47.966;10.268;2022-07-18T02:19:40;14.10;96.00
6788;DHT22;3431;47.966;10.268;2022-07-18T02:20:03;14.00;96.00
6788;DHT22;3431;47.966;10.268;2022-07-18T02:20:25;14.00;96.00
6788;DHT22;3431;47.966;10.268;2022-07-18T02:20:46;14.00;96.10
6788;DHT22;3431;47.966;10.268;2022-07-18T02:21:08;14.00;96.10
6788;DHT22;3431;47.966;10.268;2022-07-18T02:21:32;14.00;96.10
6788;DHT22;3431;47.966;10.268;2022-07-18T02:21:53;14.00;96.10
6788;DHT22;3431;47.966;10.268;2022-07-18T02:22:15;14.00;96.10
6788;DHT22;3431;47.966;10.268;2022-07-18T02:22:37;14.00;96.20
6788;DHT22;3431;47.966;10.268;2022-07-18T02:23:00;14.00;96.20
6788;DHT22;3431;47.966;10.268;2022-07-18T02:23:21;14.00;96.20
6788;DHT22;3431;47.966;10.268;2022-07-18T02:23:43;14.00;96.50